sensor_id;sensor_type;location;lat;lon;timestamp;P1;durP1;ratioP1;P2;durP2;ratioP2
15116;SDS011;7659;51.038;13.786;2024-03-08T00:01:39;42.88;;;26.15;;
15116;SDS011;7659;51.038;13.786;2024-03-08T00:04:04;44.78;;;29.25;;
15116;SDS011;7659;51.038;13.786;2024-03-08T00:06:31;45.88;;;29.77;;
15116;SDS011;7659;51.038;13.786;2024-03-08T00:08:57;45.05;;;28.95;;
15116;SDS011;7659;51.038;13.786;2024-03-08T00:11:22;45.88;;;28.58;;
15116;SDS011;7659;51.038;13.786;2024-03-08T00:13:52;47.50;;;27.65;;
15116;SDS011;7659;51.038;13.786;2024-03-08T00:16:18;43.85;;;28.25;;
15116;SDS011;7659;51.038;13.786;2024-03-08T00:18:45;45.90;;;28.08;;
15116;SDS011;7659;51.038;13.786;2024-03-08T00:21:10;46.00;;;28.73;;
15116;SDS011;7659;51.038;13.786;2024-03-08T00:23:37;46.13;;;28.30;;
15116;SDS011;7659;51.038;13.786;2024-03-08T00:26:02;46.72;;;28.50;;
15116;SDS011;7659;51.038;13.786;2024-03-08T00:28:29;48.10;;;28.40;;
15116;SDS011;7659;51.038;13.786;2024-03-08T00:30:56;45.63;;;28.30;;
15116;SDS011;7659;51.038;13.786;2024-03-08T00:33:21;49.70;;;29.88;;
15116;SDS011;7659;51.038;13.786;2024-03-08T00:35:46;45.85;;;29.00;;
15116;SDS011;7659;51.038;13.786;2024-03-08T00:38:13;46.92;;;29.48;;
15116;SDS011;7659;51.038;13.786;2024-03-08T00:40:38;49.88;;;29.00;;
15116;SDS011;7659;51.038;13.786;2024-03-08T00:43:05;46.55;;;29.00;;
15116;SDS011;7659;51.038;13.786;2024-03-08T00:45:31;49.55;;;29.33;;
15116;SDS011;7659;51.038;13.786;2024-03-08T00:47:56;45.78;;;27.65;;
15116;SDS011;7659;51.038;13.786;2024-03-08T00:50:22;48.20;;;29.67;;
15116;SDS011;7659;51.038;13.786;2024-03-08T00:52:47;47.53;;;29.73;;
15116;SDS011;7659;51.038;13.786;2024-03-08T00:55:13;46.97;;;28.70;;
15116;SDS011;7659;51.038;13.786;2024-03-08T00:57:38;48.45;;;29.33;;
15116;SDS011;7659;51.038;13.786;2024-03-08T01:00:06;51.58;;;29.00;;
15116;SDS011;7659;51.038;13.786;2024-03-08T01:02:35;48.53;;;30.48;;
15116;SDS011;7659;51.038;13.786;2024-03-08T01:05:01;49.42;;;29.48;;
15116;SDS011;7659;51.038;13.786;2024-03-08T01:07:26;41.72;;;27.85;;
15116;SDS011;7659;51.038;13.786;2024-03-08T01:09:52;49.92;;;29.90;;
15116;SDS011;7659;51.038;13.786;2024-03-08T01:12:17;46.72;;;28.58;;
15116;SDS011;7659;51.038;13.786;2024-03-08T01:14:42;47.30;;;28.35;;
15116;SDS011;7659;51.038;13.786;2024-03-08T01:17:08;46.60;;;28.23;;
15116;SDS011;7659;51.038;13.786;2024-03-08T01:19:34;45.90;;;29.90;;
15116;SDS011;7659;51.038;13.786;2024-03-08T01:22:00;45.13;;;27.73;;
15116;SDS011;7659;51.038;13.786;2024-03-08T01:24:25;49.63;;;31.38;;
15116;SDS011;7659;51.038;13.786;2024-03-08T01:26:51;46.67;;;29.92;;
15116;SDS011;7659;51.038;13.786;2024-03-08T01:29:16;48.88;;;29.73;;
15116;SDS011;7659;51.038;13.786;2024-03-08T01:31:42;49.03;;;30.63;;
15116;SDS011;7659;51.038;13.786;2024-03-08T01:34:07;48.35;;;31.17;;
15116;SDS011;7659;51.038;13.786;2024-03-08T01:36:33;50.38;;;30.65;;
15116;SDS011;7659;51.038;13.786;2024-03-08T01:38:58;48.42;;;30.40;;
15116;SDS011;7659;51.038;13.786;2024-03-08T01:41:24;46.30;;;28.98;;
15116;SDS011;7659;51.038;13.786;2024-03-08T01:43:49;51.30;;;30.73;;
15116;SDS011;7659;51.038;13.786;2024-03-08T01:46:17;49.58;;;31.40;;
15116;SDS011;7659;51.038;13.786;2024-03-08T01:48:43;51.90;;;31.73;;
15116;SDS011;7659;51.038;13.786;2024-03-08T01:51:08;48.08;;;30.42;;
15116;SDS011;7659;51.038;13.786;2024-03-08T01:53:34;49.65;;;30.30;;
15116;SDS011;7659;51.038;13.786;2024-03-08T01:56:00;47.72;;;30.58;;
15116;SDS011;7659;51.038;13.786;2024-03-08T01:58:27;51.95;;;29.98;;
15116;SDS011;7659;51.038;13.786;2024-03-08T02:00:53;49.22;;;30.83;;
15116;SDS011;7659;51.038;13.786;2024-03-08T02:03:19;49.67;;;30.88;;
15116;SDS011;7659;51.038;13.786;2024-03-08T02:05:46;53.35;;;32.75;;
15116;SDS011;7659;51.038;13.786;2024-03-08T02:08:11;52.05;;;33.08;;
15116;SDS011;7659;51.038;13.786;2024-03-08T02:10:46;51.60;;;30.33;;
15116;SDS011;7659;51.038;13.786;2024-03-08T02:13:12;48.85;;;30.80;;
15116;SDS011;7659;51.038;13.786;2024-03-08T02:18:19;55.42;;;33.65;;
15116;SDS011;7659;51.038;13.786;2024-03-08T02:20:48;53.30;;;33.42;;
15116;SDS011;7659;51.038;13.786;2024-03-08T02:23:14;55.97;;;33.33;;
15116;SDS011;7659;51.038;13.786;2024-03-08T02:25:40;54.58;;;32.25;;
15116;SDS011;7659;51.038;13.786;2024-03-08T02:28:05;52.50;;;32.67;;
15116;SDS011;7659;51.038;13.786;2024-03-08T02:30:31;55.17;;;31.95;;
15116;SDS011;7659;51.038;13.786;2024-03-08T02:32:56;55.33;;;31.13;;
15116;SDS011;7659;51.038;13.786;2024-03-08T02:35:23;52.80;;;31.90;;
15116;SDS011;7659;51.038;13.786;2024-03-08T02:37:48;52.53;;;32.00;;
15116;SDS011;7659;51.038;13.786;2024-03-08T02:40:13;51.63;;;31.02;;
15116;SDS011;7659;51.038;13.786;2024-03-08T02:42:39;51.10;;;31.45;;
15116;SDS011;7659;51.038;13.786;2024-03-08T02:45:04;55.60;;;32.30;;
15116;SDS011;7659;51.038;13.786;2024-03-08T02:47:31;53.42;;;32.25;;
15116;SDS011;7659;51.038;13.786;2024-03-08T02:49:56;50.38;;;31.77;;
15116;SDS011;7659;51.038;13.786;2024-03-08T02:52:22;51.38;;;31.92;;
15116;SDS011;7659;51.038;13.786;2024-03-08T02:54:47;48.33;;;31.50;;
15116;SDS011;7659;51.038;13.786;2024-03-08T02:57:13;50.50;;;31.35;;
15116;SDS011;7659;51.038;13.786;2024-03-08T02:59:39;54.78;;;31.10;;
15116;SDS011;7659;51.038;13.786;2024-03-08T03:02:05;50.20;;;30.55;;
15116;SDS011;7659;51.038;13.786;2024-03-08T03:04:32;56.35;;;32.42;;
15116;SDS011;7659;51.038;13.786;2024-03-08T03:06:59;55.22;;;32.15;;
15116;SDS011;7659;51.038;13.786;2024-03-08T03:09:26;57.65;;;33.00;;
15116;SDS011;7659;51.038;13.786;2024-03-08T03:11:55;49.90;;;30.50;;
15116;SDS011;7659;51.038;13.786;2024-03-08T03:14:21;54.33;;;32.83;;
15116;SDS011;7659;51.038;13.786;2024-03-08T03:16:47;55.88;;;32.40;;
15116;SDS011;7659;51.038;13.786;2024-03-08T03:19:12;54.03;;;31.38;;
15116;SDS011;7659;51.038;13.786;2024-03-08T03:21:37;53.55;;;32.58;;
15116;SDS011;7659;51.038;13.786;2024-03-08T03:24:03;57.67;;;32.28;;
15116;SDS011;7659;51.038;13.786;2024-03-08T03:26:29;46.90;;;30.75;;
15116;SDS011;7659;51.038;13.786;2024-03-08T03:28:56;49.00;;;29.50;;
15116;SDS011;7659;51.038;13.786;2024-03-08T03:31:22;49.50;;;31.35;;
15116;SDS011;7659;51.038;13.786;2024-03-08T03:33:49;51.08;;;31.63;;
15116;SDS011;7659;51.038;13.786;2024-03-08T03:36:17;51.35;;;30.67;;
15116;SDS011;7659;51.038;13.786;2024-03-08T03:38:43;51.95;;;31.30;;
15116;SDS011;7659;51.038;13.786;2024-03-08T03:41:08;53.50;;;31.17;;
15116;SDS011;7659;51.038;13.786;2024-03-08T03:43:36;48.00;;;29.45;;
15116;SDS011;7659;51.038;13.786;2024-03-08T03:46:05;49.65;;;31.00;;
15116;SDS011;7659;51.038;13.786;2024-03-08T03:48:31;54.30;;;31.63;;
15116;SDS011;7659;51.038;13.786;2024-03-08T03:50:57;51.45;;;32.85;;
15116;SDS011;7659;51.038;13.786;2024-03-08T03:53:22;54.97;;;31.63;;
15116;SDS011;7659;51.038;13.786;2024-03-08T03:55:48;47.50;;;31.10;;
15116;SDS011;7659;51.038;13.786;2024-03-08T03:58:13;56.08;;;32.20;;
15116;SDS011;7659;51.038;13.786;2024-03-08T04:00:39;52.53;;;31.30;;
15116;SDS011;7659;51.038;13.786;2024-03-08T04:03:05;53.10;;;31.23;;
15116;SDS011;7659;51.038;13.786;2024-03-08T04:05:31;48.25;;;29.38;;
15116;SDS011;7659;51.038;13.786;2024-03-08T04:07:56;51.38;;;32.35;;
15116;SDS011;7659;51.038;13.786;2024-03-08T04:10:22;54.10;;;31.55;;
15116;SDS011;7659;51.038;13.786;2024-03-08T04:12:47;50.08;;;30.90;;
15116;SDS011;7659;51.038;13.786;2024-03-08T04:15:13;50.60;;;31.45;;
15116;SDS011;7659;51.038;13.786;2024-03-08T04:17:39;54.05;;;31.20;;
15116;SDS011;7659;51.038;13.786;2024-03-08T04:20:05;50.78;;;30.00;;
15116;SDS011;7659;51.038;13.786;2024-03-08T04:22:37;54.05;;;32.47;;
15116;SDS011;7659;51.038;13.786;2024-03-08T04:25:03;51.47;;;29.65;;
15116;SDS011;7659;51.038;13.786;2024-03-08T04:27:29;56.33;;;31.65;;
15116;SDS011;7659;51.038;13.786;2024-03-08T04:29:54;50.78;;;29.83;;
15116;SDS011;7659;51.038;13.786;2024-03-08T04:32:19;55.40;;;34.15;;
15116;SDS011;7659;51.038;13.786;2024-03-08T04:34:45;51.65;;;32.78;;
15116;SDS011;7659;51.038;13.786;2024-03-08T04:37:10;57.95;;;33.67;;
15116;SDS011;7659;51.038;13.786;2024-03-08T04:39:38;60.78;;;33.08;;
15116;SDS011;7659;51.038;13.786;2024-03-08T04:42:04;55.70;;;33.50;;
15116;SDS011;7659;51.038;13.786;2024-03-08T04:44:32;53.20;;;32.40;;
15116;SDS011;7659;51.038;13.786;2024-03-08T04:46:58;50.85;;;31.23;;
15116;SDS011;7659;51.038;13.786;2024-03-08T04:49:24;55.80;;;32.42;;
15116;SDS011;7659;51.038;13.786;2024-03-08T04:51:49;52.63;;;30.95;;
15116;SDS011;7659;51.038;13.786;2024-03-08T04:54:15;53.45;;;31.88;;
15116;SDS011;7659;51.038;13.786;2024-03-08T04:56:40;60.00;;;34.25;;
15116;SDS011;7659;51.038;13.786;2024-03-08T04:59:06;59.15;;;33.20;;
15116;SDS011;7659;51.038;13.786;2024-03-08T05:01:34;51.58;;;31.00;;
15116;SDS011;7659;51.038;13.786;2024-03-08T05:04:03;55.30;;;31.88;;
15116;SDS011;7659;51.038;13.786;2024-03-08T05:06:29;52.00;;;31.05;;
15116;SDS011;7659;51.038;13.786;2024-03-08T05:08:55;56.03;;;31.73;;
15116;SDS011;7659;51.038;13.786;2024-03-08T05:11:21;59.90;;;32.60;;
15116;SDS011;7659;51.038;13.786;2024-03-08T05:13:46;56.63;;;32.55;;
15116;SDS011;7659;51.038;13.786;2024-03-08T05:16:11;58.70;;;33.88;;
15116;SDS011;7659;51.038;13.786;2024-03-08T05:18:38;54.22;;;31.33;;
15116;SDS011;7659;51.038;13.786;2024-03-08T05:21:03;54.83;;;32.20;;
15116;SDS011;7659;51.038;13.786;2024-03-08T05:23:29;51.67;;;29.92;;
15116;SDS011;7659;51.038;13.786;2024-03-08T05:25:55;52.88;;;32.17;;
15116;SDS011;7659;51.038;13.786;2024-03-08T05:28:21;54.85;;;31.80;;
15116;SDS011;7659;51.038;13.786;2024-03-08T05:30:46;55.92;;;30.70;;
15116;SDS011;7659;51.038;13.786;2024-03-08T05:33:11;54.05;;;31.48;;
15116;SDS011;7659;51.038;13.786;2024-03-08T05:35:39;49.67;;;31.00;;
15116;SDS011;7659;51.038;13.786;2024-03-08T05:38:05;51.55;;;31.42;;
15116;SDS011;7659;51.038;13.786;2024-03-08T05:40:32;53.25;;;32.58;;
15116;SDS011;7659;51.038;13.786;2024-03-08T05:42:58;59.53;;;34.67;;
15116;SDS011;7659;51.038;13.786;2024-03-08T05:45:24;54.63;;;33.80;;
15116;SDS011;7659;51.038;13.786;2024-03-08T05:47:50;57.35;;;35.45;;
15116;SDS011;7659;51.038;13.786;2024-03-08T05:50:17;54.88;;;33.45;;
15116;SDS011;7659;51.038;13.786;2024-03-08T05:52:42;56.80;;;33.83;;
15116;SDS011;7659;51.038;13.786;2024-03-08T05:55:08;54.33;;;32.33;;
15116;SDS011;7659;51.038;13.786;2024-03-08T05:57:35;56.47;;;33.53;;
15116;SDS011;7659;51.038;13.786;2024-03-08T06:00:03;52.60;;;33.22;;
15116;SDS011;7659;51.038;13.786;2024-03-08T06:02:49;54.40;;;33.30;;
15116;SDS011;7659;51.038;13.786;2024-03-08T06:05:14;61.58;;;33.70;;
15116;SDS011;7659;51.038;13.786;2024-03-08T06:07:39;56.05;;;34.47;;
15116;SDS011;7659;51.038;13.786;2024-03-08T06:10:07;58.60;;;35.92;;
15116;SDS011;7659;51.038;13.786;2024-03-08T06:12:32;56.05;;;34.40;;
15116;SDS011;7659;51.038;13.786;2024-03-08T06:15:02;54.60;;;33.90;;
15116;SDS011;7659;51.038;13.786;2024-03-08T06:17:29;59.53;;;33.35;;
15116;SDS011;7659;51.038;13.786;2024-03-08T06:19:55;52.90;;;31.45;;
15116;SDS011;7659;51.038;13.786;2024-03-08T06:22:20;54.72;;;32.22;;
15116;SDS011;7659;51.038;13.786;2024-03-08T06:24:45;55.17;;;33.03;;
15116;SDS011;7659;51.038;13.786;2024-03-08T06:27:12;53.42;;;32.05;;
15116;SDS011;7659;51.038;13.786;2024-03-08T06:29:37;54.30;;;33.60;;
15116;SDS011;7659;51.038;13.786;2024-03-08T06:32:03;56.95;;;31.85;;
15116;SDS011;7659;51.038;13.786;2024-03-08T06:34:28;56.33;;;33.17;;
15116;SDS011;7659;51.038;13.786;2024-03-08T06:36:54;53.95;;;32.95;;
15116;SDS011;7659;51.038;13.786;2024-03-08T06:39:26;57.03;;;33.70;;
15116;SDS011;7659;51.038;13.786;2024-03-08T06:41:51;58.33;;;32.75;;
15116;SDS011;7659;51.038;13.786;2024-03-08T06:44:16;58.05;;;33.53;;
15116;SDS011;7659;51.038;13.786;2024-03-08T06:46:42;57.50;;;35.08;;
15116;SDS011;7659;51.038;13.786;2024-03-08T06:49:08;57.55;;;32.60;;
15116;SDS011;7659;51.038;13.786;2024-03-08T06:51:35;56.72;;;33.67;;
15116;SDS011;7659;51.038;13.786;2024-03-08T06:54:01;55.50;;;33.60;;
15116;SDS011;7659;51.038;13.786;2024-03-08T06:56:26;57.10;;;34.63;;
15116;SDS011;7659;51.038;13.786;2024-03-08T06:58:52;55.22;;;33.58;;
15116;SDS011;7659;51.038;13.786;2024-03-08T07:01:17;53.17;;;32.80;;
15116;SDS011;7659;51.038;13.786;2024-03-08T07:03:43;59.03;;;34.80;;
15116;SDS011;7659;51.038;13.786;2024-03-08T07:06:12;52.92;;;32.17;;
15116;SDS011;7659;51.038;13.786;2024-03-08T07:08:39;58.33;;;33.38;;
15116;SDS011;7659;51.038;13.786;2024-03-08T07:11:05;56.90;;;35.13;;
15116;SDS011;7659;51.038;13.786;2024-03-08T07:13:30;54.13;;;34.10;;
15116;SDS011;7659;51.038;13.786;2024-03-08T07:15:56;58.38;;;34.97;;
15116;SDS011;7659;51.038;13.786;2024-03-08T07:18:21;56.05;;;31.98;;
15116;SDS011;7659;51.038;13.786;2024-03-08T07:20:47;62.15;;;35.30;;
15116;SDS011;7659;51.038;13.786;2024-03-08T07:23:12;57.22;;;33.22;;
15116;SDS011;7659;51.038;13.786;2024-03-08T07:25:58;53.28;;;33.90;;
15116;SDS011;7659;51.038;13.786;2024-03-08T07:28:23;59.33;;;34.08;;
15116;SDS011;7659;51.038;13.786;2024-03-08T07:30:49;56.25;;;33.38;;
15116;SDS011;7659;51.038;13.786;2024-03-08T07:33:14;62.75;;;36.90;;
15116;SDS011;7659;51.038;13.786;2024-03-08T07:35:40;59.50;;;33.42;;
15116;SDS011;7659;51.038;13.786;2024-03-08T07:38:06;54.22;;;33.08;;
15116;SDS011;7659;51.038;13.786;2024-03-08T07:40:35;51.38;;;32.80;;
15116;SDS011;7659;51.038;13.786;2024-03-08T07:43:02;59.88;;;33.58;;
15116;SDS011;7659;51.038;13.786;2024-03-08T07:45:27;54.53;;;33.20;;
15116;SDS011;7659;51.038;13.786;2024-03-08T07:47:53;58.50;;;36.40;;
15116;SDS011;7659;51.038;13.786;2024-03-08T07:50:18;59.78;;;35.08;;
15116;SDS011;7659;51.038;13.786;2024-03-08T07:52:44;61.25;;;36.45;;
15116;SDS011;7659;51.038;13.786;2024-03-08T07:55:10;55.63;;;33.47;;
15116;SDS011;7659;51.038;13.786;2024-03-08T07:57:35;58.40;;;35.28;;
15116;SDS011;7659;51.038;13.786;2024-03-08T08:00:04;53.50;;;33.28;;
15116;SDS011;7659;51.038;13.786;2024-03-08T08:02:53;54.15;;;31.33;;
15116;SDS011;7659;51.038;13.786;2024-03-08T08:05:18;51.17;;;30.75;;
15116;SDS011;7659;51.038;13.786;2024-03-08T08:07:44;56.78;;;32.80;;
15116;SDS011;7659;51.038;13.786;2024-03-08T08:10:09;54.58;;;33.13;;
15116;SDS011;7659;51.038;13.786;2024-03-08T08:12:42;55.40;;;32.55;;
15116;SDS011;7659;51.038;13.786;2024-03-08T08:15:07;54.92;;;33.38;;
15116;SDS011;7659;51.038;13.786;2024-03-08T08:17:33;44.08;;;30.02;;
15116;SDS011;7659;51.038;13.786;2024-03-08T08:20:00;46.55;;;29.42;;
15116;SDS011;7659;51.038;13.786;2024-03-08T08:22:25;49.33;;;30.65;;
15116;SDS011;7659;51.038;13.786;2024-03-08T08:24:51;45.53;;;28.83;;
15116;SDS011;7659;51.038;13.786;2024-03-08T08:27:17;46.63;;;28.23;;
15116;SDS011;7659;51.038;13.786;2024-03-08T08:29:43;45.10;;;28.92;;
15116;SDS011;7659;51.038;13.786;2024-03-08T08:32:11;43.33;;;28.05;;
15116;SDS011;7659;51.038;13.786;2024-03-08T08:34:36;48.72;;;28.95;;
15116;SDS011;7659;51.038;13.786;2024-03-08T08:37:02;42.28;;;26.58;;
15116;SDS011;7659;51.038;13.786;2024-03-08T08:39:27;44.42;;;26.65;;
15116;SDS011;7659;51.038;13.786;2024-03-08T08:41:53;45.88;;;26.20;;
15116;SDS011;7659;51.038;13.786;2024-03-08T08:44:18;43.13;;;26.88;;
15116;SDS011;7659;51.038;13.786;2024-03-08T08:46:43;38.85;;;24.88;;
15116;SDS011;7659;51.038;13.786;2024-03-08T08:49:09;39.03;;;24.40;;
15116;SDS011;7659;51.038;13.786;2024-03-08T08:51:39;47.83;;;26.35;;
15116;SDS011;7659;51.038;13.786;2024-03-08T08:54:05;41.30;;;24.85;;
15116;SDS011;7659;51.038;13.786;2024-03-08T08:56:31;43.75;;;25.60;;
15116;SDS011;7659;51.038;13.786;2024-03-08T08:58:57;36.58;;;24.20;;
15116;SDS011;7659;51.038;13.786;2024-03-08T09:01:23;44.47;;;25.40;;
15116;SDS011;7659;51.038;13.786;2024-03-08T09:03:48;40.83;;;24.75;;
15116;SDS011;7659;51.038;13.786;2024-03-08T09:06:15;37.10;;;23.25;;
15116;SDS011;7659;51.038;13.786;2024-03-08T09:08:41;36.20;;;23.88;;
15116;SDS011;7659;51.038;13.786;2024-03-08T09:11:07;42.22;;;24.55;;
15116;SDS011;7659;51.038;13.786;2024-03-08T09:13:32;49.50;;;29.10;;
15116;SDS011;7659;51.038;13.786;2024-03-08T09:15:59;37.88;;;24.55;;
15116;SDS011;7659;51.038;13.786;2024-03-08T09:18:25;39.40;;;24.77;;
15116;SDS011;7659;51.038;13.786;2024-03-08T09:20:50;36.35;;;23.60;;
15116;SDS011;7659;51.038;13.786;2024-03-08T09:23:16;37.47;;;23.52;;
15116;SDS011;7659;51.038;13.786;2024-03-08T09:25:44;39.28;;;23.40;;
15116;SDS011;7659;51.038;13.786;2024-03-08T09:28:10;38.13;;;23.60;;
15116;SDS011;7659;51.038;13.786;2024-03-08T09:30:37;38.75;;;24.80;;
15116;SDS011;7659;51.038;13.786;2024-03-08T09:33:03;42.45;;;23.83;;
15116;SDS011;7659;51.038;13.786;2024-03-08T09:35:29;39.30;;;23.38;;
15116;SDS011;7659;51.038;13.786;2024-03-08T09:37:55;33.95;;;22.35;;
15116;SDS011;7659;51.038;13.786;2024-03-08T09:40:21;35.05;;;22.02;;
15116;SDS011;7659;51.038;13.786;2024-03-08T09:42:49;35.40;;;22.42;;
15116;SDS011;7659;51.038;13.786;2024-03-08T09:45:14;35.80;;;22.90;;
15116;SDS011;7659;51.038;13.786;2024-03-08T09:47:42;31.88;;;20.92;;
15116;SDS011;7659;51.038;13.786;2024-03-08T09:50:08;35.67;;;22.13;;
15116;SDS011;7659;51.038;13.786;2024-03-08T09:52:37;35.03;;;21.23;;
15116;SDS011;7659;51.038;13.786;2024-03-08T09:55:07;42.30;;;20.80;;
15116;SDS011;7659;51.038;13.786;2024-03-08T09:57:36;32.55;;;21.10;;
15116;SDS011;7659;51.038;13.786;2024-03-08T10:00:02;34.97;;;21.63;;
15116;SDS011;7659;51.038;13.786;2024-03-08T10:02:32;30.85;;;19.17;;
15116;SDS011;7659;51.038;13.786;2024-03-08T10:04:59;29.73;;;19.98;;
15116;SDS011;7659;51.038;13.786;2024-03-08T10:07:28;29.63;;;20.77;;
15116;SDS011;7659;51.038;13.786;2024-03-08T10:09:54;32.92;;;20.48;;
15116;SDS011;7659;51.038;13.786;2024-03-08T10:12:19;28.48;;;19.98;;
15116;SDS011;7659;51.038;13.786;2024-03-08T10:14:45;33.50;;;21.10;;
15116;SDS011;7659;51.038;13.786;2024-03-08T10:17:11;28.75;;;20.38;;
15116;SDS011;7659;51.038;13.786;2024-03-08T10:19:37;35.03;;;23.13;;
15116;SDS011;7659;51.038;13.786;2024-03-08T10:22:04;33.83;;;21.85;;
15116;SDS011;7659;51.038;13.786;2024-03-08T10:24:30;35.33;;;21.67;;
15116;SDS011;7659;51.038;13.786;2024-03-08T10:26:58;33.40;;;21.70;;
15116;SDS011;7659;51.038;13.786;2024-03-08T10:29:25;29.90;;;20.27;;
15116;SDS011;7659;51.038;13.786;2024-03-08T10:31:50;34.22;;;21.95;;
15116;SDS011;7659;51.038;13.786;2024-03-08T10:34:16;33.33;;;21.15;;
15116;SDS011;7659;51.038;13.786;2024-03-08T10:36:42;33.65;;;21.55;;
15116;SDS011;7659;51.038;13.786;2024-03-08T10:39:12;31.73;;;20.60;;
15116;SDS011;7659;51.038;13.786;2024-03-08T10:41:40;36.35;;;21.77;;
15116;SDS011;7659;51.038;13.786;2024-03-08T10:44:10;31.30;;;20.42;;
15116;SDS011;7659;51.038;13.786;2024-03-08T10:49:21;32.42;;;20.77;;
15116;SDS011;7659;51.038;13.786;2024-03-08T10:51:50;30.48;;;21.33;;
15116;SDS011;7659;51.038;13.786;2024-03-08T10:54:17;30.55;;;20.80;;
15116;SDS011;7659;51.038;13.786;2024-03-08T10:56:44;34.03;;;20.40;;
15116;SDS011;7659;51.038;13.786;2024-03-08T10:59:09;33.95;;;20.85;;
15116;SDS011;7659;51.038;13.786;2024-03-08T11:01:35;31.88;;;20.67;;
15116;SDS011;7659;51.038;13.786;2024-03-08T11:04:04;34.05;;;20.85;;
15116;SDS011;7659;51.038;13.786;2024-03-08T11:06:51;27.42;;;19.50;;
15116;SDS011;7659;51.038;13.786;2024-03-08T11:09:36;31.92;;;20.75;;
15116;SDS011;7659;51.038;13.786;2024-03-08T11:14:51;31.23;;;19.85;;
15116;SDS011;7659;51.038;13.786;2024-03-08T11:17:27;32.17;;;20.15;;
15116;SDS011;7659;51.038;13.786;2024-03-08T11:22:33;32.33;;;19.75;;
15116;SDS011;7659;51.038;13.786;2024-03-08T11:25:01;29.35;;;19.23;;
15116;SDS011;7659;51.038;13.786;2024-03-08T11:27:28;31.40;;;19.77;;
15116;SDS011;7659;51.038;13.786;2024-03-08T11:30:00;27.75;;;18.55;;
15116;SDS011;7659;51.038;13.786;2024-03-08T11:32:34;28.80;;;19.38;;
15116;SDS011;7659;51.038;13.786;2024-03-08T11:35:00;24.30;;;17.75;;
15116;SDS011;7659;51.038;13.786;2024-03-08T11:37:33;29.10;;;18.00;;
15116;SDS011;7659;51.038;13.786;2024-03-08T11:39:59;32.92;;;17.92;;
15116;SDS011;7659;51.038;13.786;2024-03-08T11:42:26;27.50;;;17.80;;
15116;SDS011;7659;51.038;13.786;2024-03-08T11:44:52;25.60;;;18.15;;
15116;SDS011;7659;51.038;13.786;2024-03-08T11:47:18;25.83;;;17.55;;
15116;SDS011;7659;51.038;13.786;2024-03-08T11:49:44;26.45;;;17.08;;
15116;SDS011;7659;51.038;13.786;2024-03-08T11:52:10;24.55;;;16.58;;
15116;SDS011;7659;51.038;13.786;2024-03-08T11:54:37;24.77;;;16.27;;
15116;SDS011;7659;51.038;13.786;2024-03-08T11:57:04;22.42;;;16.15;;
15116;SDS011;7659;51.038;13.786;2024-03-08T11:59:29;24.52;;;16.13;;
15116;SDS011;7659;51.038;13.786;2024-03-08T12:02:05;20.23;;;14.05;;
15116;SDS011;7659;51.038;13.786;2024-03-08T12:04:31;21.55;;;15.35;;
15116;SDS011;7659;51.038;13.786;2024-03-08T12:06:59;20.73;;;14.60;;
15116;SDS011;7659;51.038;13.786;2024-03-08T12:09:26;19.30;;;14.55;;
15116;SDS011;7659;51.038;13.786;2024-03-08T12:11:51;20.85;;;14.82;;
15116;SDS011;7659;51.038;13.786;2024-03-08T12:14:17;19.30;;;13.65;;
15116;SDS011;7659;51.038;13.786;2024-03-08T12:16:43;20.25;;;13.88;;
15116;SDS011;7659;51.038;13.786;2024-03-08T12:19:09;20.75;;;14.07;;
15116;SDS011;7659;51.038;13.786;2024-03-08T12:21:35;18.73;;;13.65;;
15116;SDS011;7659;51.038;13.786;2024-03-08T12:24:08;18.20;;;12.82;;
15116;SDS011;7659;51.038;13.786;2024-03-08T12:26:35;19.55;;;13.05;;
15116;SDS011;7659;51.038;13.786;2024-03-08T12:31:48;19.75;;;13.57;;
15116;SDS011;7659;51.038;13.786;2024-03-08T12:34:15;20.42;;;13.07;;
15116;SDS011;7659;51.038;13.786;2024-03-08T12:36:47;24.23;;;14.32;;
15116;SDS011;7659;51.038;13.786;2024-03-08T12:39:15;16.63;;;12.07;;
15116;SDS011;7659;51.038;13.786;2024-03-08T12:41:41;23.65;;;14.52;;
15116;SDS011;7659;51.038;13.786;2024-03-08T12:44:06;19.85;;;13.15;;
15116;SDS011;7659;51.038;13.786;2024-03-08T12:46:39;24.60;;;13.00;;
15116;SDS011;7659;51.038;13.786;2024-03-08T12:49:09;23.55;;;14.02;;
15116;SDS011;7659;51.038;13.786;2024-03-08T12:51:35;21.60;;;13.85;;
15116;SDS011;7659;51.038;13.786;2024-03-08T12:54:02;18.17;;;13.27;;
15116;SDS011;7659;51.038;13.786;2024-03-08T12:56:31;16.88;;;12.40;;
15116;SDS011;7659;51.038;13.786;2024-03-08T12:58:57;18.70;;;13.43;;
15116;SDS011;7659;51.038;13.786;2024-03-08T13:01:23;20.25;;;13.30;;
15116;SDS011;7659;51.038;13.786;2024-03-08T13:03:48;21.25;;;13.48;;
15116;SDS011;7659;51.038;13.786;2024-03-08T13:06:14;19.17;;;13.25;;
15116;SDS011;7659;51.038;13.786;2024-03-08T13:08:40;18.77;;;13.10;;
15116;SDS011;7659;51.038;13.786;2024-03-08T13:11:06;17.63;;;12.80;;
15116;SDS011;7659;51.038;13.786;2024-03-08T13:13:37;24.75;;;13.57;;
15116;SDS011;7659;51.038;13.786;2024-03-08T13:16:05;19.85;;;14.25;;
15116;SDS011;7659;51.038;13.786;2024-03-08T13:18:36;18.55;;;13.52;;
15116;SDS011;7659;51.038;13.786;2024-03-08T13:21:02;19.05;;;12.75;;
15116;SDS011;7659;51.038;13.786;2024-03-08T13:23:33;17.42;;;12.23;;
15116;SDS011;7659;51.038;13.786;2024-03-08T13:26:05;20.55;;;12.40;;
15116;SDS011;7659;51.038;13.786;2024-03-08T13:28:30;22.63;;;14.43;;
15116;SDS011;7659;51.038;13.786;2024-03-08T13:31:02;17.95;;;12.73;;
15116;SDS011;7659;51.038;13.786;2024-03-08T13:33:28;18.33;;;13.05;;
15116;SDS011;7659;51.038;13.786;2024-03-08T13:35:53;17.35;;;12.40;;
15116;SDS011;7659;51.038;13.786;2024-03-08T13:38:19;17.80;;;12.25;;
15116;SDS011;7659;51.038;13.786;2024-03-08T13:40:46;14.25;;;10.88;;
15116;SDS011;7659;51.038;13.786;2024-03-08T13:43:12;14.63;;;10.70;;
15116;SDS011;7659;51.038;13.786;2024-03-08T13:45:38;12.85;;;10.40;;
15116;SDS011;7659;51.038;13.786;2024-03-08T13:48:07;13.27;;;9.88;;
15116;SDS011;7659;51.038;13.786;2024-03-08T13:50:37;14.73;;;9.75;;
15116;SDS011;7659;51.038;13.786;2024-03-08T13:53:03;13.02;;;8.90;;
15116;SDS011;7659;51.038;13.786;2024-03-08T13:55:29;11.90;;;9.13;;
15116;SDS011;7659;51.038;13.786;2024-03-08T13:57:56;11.20;;;8.40;;
15116;SDS011;7659;51.038;13.786;2024-03-08T14:00:22;10.85;;;9.23;;
15116;SDS011;7659;51.038;13.786;2024-03-08T14:02:50;10.98;;;8.50;;
15116;SDS011;7659;51.038;13.786;2024-03-08T14:05:15;9.93;;;8.77;;
15116;SDS011;7659;51.038;13.786;2024-03-08T14:07:41;11.48;;;8.77;;
15116;SDS011;7659;51.038;13.786;2024-03-08T14:10:07;9.80;;;8.32;;
15116;SDS011;7659;51.038;13.786;2024-03-08T14:12:32;9.65;;;8.40;;
15116;SDS011;7659;51.038;13.786;2024-03-08T14:14:58;10.35;;;8.10;;
15116;SDS011;7659;51.038;13.786;2024-03-08T14:17:25;8.68;;;7.75;;
15116;SDS011;7659;51.038;13.786;2024-03-08T14:19:52;10.27;;;8.30;;
15116;SDS011;7659;51.038;13.786;2024-03-08T14:22:17;9.70;;;8.18;;
15116;SDS011;7659;51.038;13.786;2024-03-08T14:24:43;7.88;;;7.07;;
15116;SDS011;7659;51.038;13.786;2024-03-08T14:27:10;8.43;;;7.53;;
15116;SDS011;7659;51.038;13.786;2024-03-08T14:29:36;6.95;;;6.35;;
15116;SDS011;7659;51.038;13.786;2024-03-08T14:32:02;7.88;;;7.07;;
15116;SDS011;7659;51.038;13.786;2024-03-08T14:34:31;10.52;;;7.25;;